Time;durP1;ratioP1;P1;durP2;ratioP2;P2;SDS_P1;SDS_P2;PMS_P1;PMS_P2;Temp;Humidity;BMP_temperature;BMP_pressure;BME280_temperature;BME280_humidity;BME280_pressure;Samples;Min_cycle;Max_cycle;Signal;HPM_P1;HPM_P2
2022/02/23 00:00:42;;;;;;;4.43;1.63;;;;;;;;;;5060890;28;20421;-80
2022/02/23 00:03:09;;;;;;;5.10;1.90;;;;;;;;;;5060397;28;20819;-80
2022/02/23 00:05:35;;;;;;;5.73;2.40;;;;;;;;;;5062093;28;20411;-80
2022/02/23 00:08:01;;;;;;;6.53;2.10;;;;;;;;;;5062052;28;20398;-79
2022/02/23 00:10:27;;;;;;;4.43;1.60;;;;;;;;;;5063357;28;20453;-80
2022/02/23 00:12:53;;;;;;;3.00;2.13;;;;;;;;;;5061463;28;20424;-79
2022/02/23 00:15:19;;;;;;;4.60;1.90;;;;;;;;;;5062809;28;20406;-80
2022/02/23 00:17:45;;;;;;;5.90;2.90;;;;;;;;;;5063267;28;20414;-79
2022/02/23 00:20:13;;;;;;;4.30;1.90;;;;;;;;;;5066820;28;20487;-79
2022/02/23 00:22:39;;;;;;;4.73;1.97;;;;;;;;;;5065926;28;20421;-79
2022/02/23 00:25:05;;;;;;;4.20;1.77;;;;;;;;;;5059133;28;20829;-79
2022/02/23 00:27:32;;;;;;;3.70;1.67;;;;;;;;;;5056711;28;20467;-79
2022/02/23 00:29:58;;;;;;;5.20;2.30;;;;;;;;;;5057651;28;20456;-79
2022/02/23 00:32:24;;;;;;;10.13;3.47;;;;;;;;;;5057948;28;20425;-79
2022/02/23 00:34:50;;;;;;;3.67;2.00;;;;;;;;;;5057431;28;20406;-79
2022/02/23 00:37:17;;;;;;;4.20;1.80;;;;;;;;;;5057498;28;20413;-79
2022/02/23 00:39:43;;;;;;;6.77;1.90;;;;;;;;;;5057901;28;20509;-79
2022/02/23 00:42:09;;;;;;;3.43;2.00;;;;;;;;;;5056863;28;20417;-79
2022/02/23 00:44:36;;;;;;;5.93;1.80;;;;;;;;;;5065564;28;20464;-79
2022/02/23 00:47:02;;;;;;;3.80;1.77;;;;;;;;;;5057092;28;20418;-79
2022/02/23 00:49:29;;;;;;;4.40;2.27;;;;;;;;;;5058480;28;20524;-80
2022/02/23 00:51:55;;;;;;;4.40;1.97;;;;;;;;;;5057006;28;20505;-80
2022/02/23 00:54:21;;;;;;;5.33;2.60;;;;;;;;;;5057584;28;20425;-79
2022/02/23 00:56:48;;;;;;;3.73;1.90;;;;;;;;;;5058389;28;20398;-79
2022/02/23 00:59:14;;;;;;;6.00;2.30;;;;;;;;;;5058136;28;20502;-79
2022/02/23 01:01:40;;;;;;;6.97;1.83;;;;;;;;;;5058239;28;20409;-79
2022/02/23 01:04:07;;;;;;;4.43;2.30;;;;;;;;;;5057217;28;20417;-79
2022/02/23 01:06:34;;;;;;;3.23;1.80;;;;;;;;;;5057372;28;20416;-79
2022/02/23 01:09:00;;;;;;;5.17;1.90;;;;;;;;;;5057533;28;20410;-79
2022/02/23 01:11:26;;;;;;;3.33;1.90;;;;;;;;;;5056746;28;20821;-78
2022/02/23 01:13:52;;;;;;;3.50;1.70;;;;;;;;;;5057544;28;20755;-79
2022/02/23 01:16:19;;;;;;;4.43;2.10;;;;;;;;;;5057444;28;20781;-79
2022/02/23 01:18:45;;;;;;;6.47;1.43;;;;;;;;;;5057657;28;20429;-80
2022/02/23 01:21:11;;;;;;;3.87;1.47;;;;;;;;;;5058544;28;20536;-79
2022/02/23 01:23:37;;;;;;;5.20;2.10;;;;;;;;;;5061613;28;20420;-79
2022/02/23 01:26:04;;;;;;;4.00;1.70;;;;;;;;;;5061516;28;20409;-80
2022/02/23 01:28:31;;;;;;;4.40;1.67;;;;;;;;;;5061154;28;20766;-80
2022/02/23 01:30:57;;;;;;;8.10;1.70;;;;;;;;;;5060316;28;20449;-79
2022/02/23 01:33:23;;;;;;;1.80;1.40;;;;;;;;;;5060572;28;20410;-79
2022/02/23 01:35:50;;;;;;;3.97;1.63;;;;;;;;;;5061506;28;20393;-79
2022/02/23 01:38:16;;;;;;;2.53;1.70;;;;;;;;;;5061414;28;20397;-79
2022/02/23 01:40:42;;;;;;;5.17;1.77;;;;;;;;;;5061013;28;20429;-79
2022/02/23 01:43:08;;;;;;;3.10;1.53;;;;;;;;;;5061013;28;20401;-79
2022/02/23 01:45:35;;;;;;;3.33;1.53;;;;;;;;;;5061534;28;20458;-79
2022/02/23 01:48:01;;;;;;;4.00;1.67;;;;;;;;;;5061041;28;20773;-79
2022/02/23 01:50:27;;;;;;;4.70;1.70;;;;;;;;;;5060289;28;20456;-79
2022/02/23 01:52:53;;;;;;;3.50;1.37;;;;;;;;;;5059705;28;20415;-79
2022/02/23 01:55:19;;;;;;;4.23;1.50;;;;;;;;;;5061071;28;20459;-79
2022/02/23 01:57:45;;;;;;;5.30;1.83;;;;;;;;;;5059792;28;20409;-79
2022/02/23 02:00:14;;;;;;;3.60;1.60;;;;;;;;;;5060703;28;20436;-80
2022/02/23 02:02:40;;;;;;;3.60;1.90;;;;;;;;;;5054163;28;20448;-79
2022/02/23 02:05:06;;;;;;;4.07;1.67;;;;;;;;;;5026317;28;20529;-80
2022/02/23 02:07:33;;;;;;;2.63;1.30;;;;;;;;;;5040474;28;20402;-79
2022/02/23 02:09:59;;;;;;;5.00;1.87;;;;;;;;;;5040301;28;20454;-79
2022/02/23 02:12:25;;;;;;;3.93;1.83;;;;;;;;;;5039067;28;20418;-79
2022/02/23 02:14:52;;;;;;;10.83;1.83;;;;;;;;;;5040419;28;20413;-80
2022/02/23 02:17:18;;;;;;;5.73;1.47;;;;;;;;;;5040552;28;20394;-80
2022/02/23 02:19:44;;;;;;;4.23;1.27;;;;;;;;;;5040171;28;20438;-79
2022/02/23 02:22:10;;;;;;;2.17;1.53;;;;;;;;;;5040197;28;20430;-80
2022/02/23 02:24:38;;;;;;;4.93;1.97;;;;;;;;;;5040886;28;20874;-79
2022/02/23 02:27:04;;;;;;;2.33;1.60;;;;;;;;;;5040029;28;20399;-79
2022/02/23 02:29:31;;;;;;;5.80;2.07;;;;;;;;;;5039880;28;20435;-80
2022/02/23 02:31:57;;;;;;;5.10;1.20;;;;;;;;;;5039851;28;20894;-79
2022/02/23 02:34:23;;;;;;;2.20;1.47;;;;;;;;;;5040327;28;20498;-80
2022/02/23 02:36:50;;;;;;;2.80;1.30;;;;;;;;;;5039970;28;20402;-80
2022/02/23 02:39:19;;;;;;;5.27;1.50;;;;;;;;;;5038799;28;21010;-79
2022/02/23 02:41:46;;;;;;;3.90;1.30;;;;;;;;;;5039994;28;20497;-79
2022/02/23 02:44:12;;;;;;;3.00;1.50;;;;;;;;;;5039100;28;20426;-80
2022/02/23 02:46:38;;;;;;;2.43;1.60;;;;;;;;;;5040501;28;20548;-80
2022/02/23 02:49:05;;;;;;;3.87;1.90;;;;;;;;;;5039605;28;20414;-80
2022/02/23 02:51:31;;;;;;;4.83;1.37;;;;;;;;;;5039778;28;20522;-79
2022/02/23 02:53:57;;;;;;;3.27;1.47;;;;;;;;;;5039852;28;20774;-79
2022/02/23 02:56:23;;;;;;;2.73;1.57;;;;;;;;;;5038939;28;20390;-79
2022/02/23 02:58:52;;;;;;;6.17;1.57;;;;;;;;;;5040125;28;20911;-79
2022/02/23 03:01:22;;;;;;;2.70;1.37;;;;;;;;;;5039262;28;20501;-79
2022/02/23 03:03:48;;;;;;;2.30;1.30;;;;;;;;;;5039591;28;20398;-79
2022/02/23 03:06:15;;;;;;;4.00;1.17;;;;;;;;;;5039854;28;20410;-80
2022/02/23 03:08:41;;;;;;;4.10;1.23;;;;;;;;;;5039191;28;20406;-79
2022/02/23 03:11:07;;;;;;;4.73;1.70;;;;;;;;;;5039001;28;20476;-79
2022/02/23 03:13:33;;;;;;;2.50;1.60;;;;;;;;;;5038601;28;20460;-79
2022/02/23 03:15:59;;;;;;;2.30;1.50;;;;;;;;;;5039716;28;20411;-80
2022/02/23 03:18:25;;;;;;;7.03;1.30;;;;;;;;;;5039392;28;20398;-80
2022/02/23 03:20:52;;;;;;;4.70;1.60;;;;;;;;;;5039610;28;20814;-79
2022/02/23 03:23:18;;;;;;;4.80;1.50;;;;;;;;;;5038717;28;20835;-78
2022/02/23 03:25:44;;;;;;;3.77;1.23;;;;;;;;;;5039633;28;20414;-79
2022/02/23 03:28:10;;;;;;;2.90;1.37;;;;;;;;;;5039363;28;20411;-79
2022/02/23 03:30:39;;;;;;;2.57;1.80;;;;;;;;;;5039276;28;21061;-79
2022/02/23 03:33:09;;;;;;;2.47;1.43;;;;;;;;;;5039626;28;20918;-79
2022/02/23 03:35:36;;;;;;;2.60;1.40;;;;;;;;;;5028382;28;20513;-79
2022/02/23 03:38:02;;;;;;;3.03;1.43;;;;;;;;;;5036205;28;20425;-79
2022/02/23 03:40:28;;;;;;;4.20;1.77;;;;;;;;;;5037927;28;20541;-79
2022/02/23 03:42:55;;;;;;;2.83;1.57;;;;;;;;;;5038461;28;20418;-79
2022/02/23 03:45:21;;;;;;;3.43;1.67;;;;;;;;;;5040499;28;20425;-80
2022/02/23 03:47:47;;;;;;;5.27;1.87;;;;;;;;;;5039012;28;20418;-80
2022/02/23 03:50:14;;;;;;;2.47;1.50;;;;;;;;;;5038977;28;20897;-80
2022/02/23 03:52:41;;;;;;;4.13;1.50;;;;;;;;;;5039304;28;20922;-80
2022/02/23 03:55:07;;;;;;;2.50;1.07;;;;;;;;;;5038991;28;20413;-80
2022/02/23 03:57:33;;;;;;;3.30;1.50;;;;;;;;;;5039074;28;20418;-80
2022/02/23 04:00:00;;;;;;;4.57;1.40;;;;;;;;;;5041383;28;20422;-79
2022/02/23 04:02:26;;;;;;;10.27;1.90;;;;;;;;;;5045788;28;20407;-80
2022/02/23 04:04:52;;;;;;;5.47;1.77;;;;;;;;;;5041954;28;20406;-80
2022/02/23 04:07:18;;;;;;;7.43;2.03;;;;;;;;;;5039552;28;20417;-80
2022/02/23 04:09:48;;;;;;;2.90;1.30;;;;;;;;;;5039135;28;20858;-79
2022/02/23 04:12:14;;;;;;;6.00;1.73;;;;;;;;;;5040491;28;20942;-79
2022/02/23 04:14:40;;;;;;;6.63;1.87;;;;;;;;;;5039570;28;20402;-79
2022/02/23 04:17:06;;;;;;;2.97;1.43;;;;;;;;;;5039697;28;20402;-79
2022/02/23 04:19:32;;;;;;;6.23;1.30;;;;;;;;;;5038701;28;20444;-79
2022/02/23 04:21:58;;;;;;;4.53;1.43;;;;;;;;;;5030636;28;20434;-80
2022/02/23 04:24:24;;;;;;;7.70;1.97;;;;;;;;;;5038557;28;20411;-80
2022/02/23 04:26:50;;;;;;;2.00;1.40;;;;;;;;;;5044109;28;20457;-79
2022/02/23 04:29:16;;;;;;;5.23;1.40;;;;;;;;;;5057676;28;20429;-78
2022/02/23 04:31:43;;;;;;;3.23;1.30;;;;;;;;;;5057585;28;20476;-80
2022/02/23 04:34:10;;;;;;;4.90;1.60;;;;;;;;;;5058592;28;20405;-80
2022/02/23 04:36:36;;;;;;;4.27;1.47;;;;;;;;;;5059219;28;20394;-80
2022/02/23 04:39:03;;;;;;;6.07;1.53;;;;;;;;;;5058159;28;20394;-80
2022/02/23 04:41:29;;;;;;;2.03;1.20;;;;;;;;;;5058804;28;20409;-81
2022/02/23 04:43:55;;;;;;;3.10;1.63;;;;;;;;;;5057679;28;20829;-80
2022/02/23 04:46:22;;;;;;;9.17;1.60;;;;;;;;;;5058485;28;20463;-80
2022/02/23 04:48:50;;;;;;;8.17;1.47;;;;;;;;;;5058726;28;20408;-80
2022/02/23 04:51:16;;;;;;;6.60;1.53;;;;;;;;;;5057005;28;20487;-80
2022/02/23 04:53:42;;;;;;;2.77;1.37;;;;;;;;;;5058457;28;20406;-80
2022/02/23 04:56:09;;;;;;;8.13;1.50;;;;;;;;;;5061484;28;20451;-80
2022/02/23 04:58:35;;;;;;;4.93;1.97;;;;;;;;;;5061842;28;20439;-80
2022/02/23 05:01:01;;;;;;;5.53;2.57;;;;;;;;;;5061625;28;20425;-80
2022/02/23 05:03:27;;;;;;;3.30;1.83;;;;;;;;;;5063598;28;20461;-80
2022/02/23 05:05:54;;;;;;;4.50;1.80;;;;;;;;;;5063199;28;20841;-80
2022/02/23 05:08:20;;;;;;;5.67;1.53;;;;;;;;;;5062716;28;20412;-79
2022/02/23 05:10:46;;;;;;;6.30;1.40;;;;;;;;;;5062589;28;20453;-80
2022/02/23 05:13:13;;;;;;;2.83;1.27;;;;;;;;;;5063073;28;20413;-80
2022/02/23 05:15:39;;;;;;;4.70;1.97;;;;;;;;;;5061866;28;20839;-80
2022/02/23 05:18:07;;;;;;;4.23;2.17;;;;;;;;;;5061911;28;20886;-79
2022/02/23 05:20:33;;;;;;;10.00;1.73;;;;;;;;;;5069683;23;20619;-75
2022/02/23 05:23:00;;;;;;;3.20;1.70;;;;;;;;;;5045226;28;20399;-75
2022/02/23 05:25:26;;;;;;;5.43;2.10;;;;;;;;;;5036563;28;20394;-75
2022/02/23 05:27:52;;;;;;;5.90;1.83;;;;;;;;;;5036592;28;20407;-75
2022/02/23 05:30:18;;;;;;;6.10;2.30;;;;;;;;;;5036569;28;20547;-75
2022/02/23 05:32:45;;;;;;;5.77;1.50;;;;;;;;;;5035120;28;20964;-75
2022/02/23 05:35:11;;;;;;;3.60;1.43;;;;;;;;;;5036524;28;20460;-75
2022/02/23 05:37:38;;;;;;;7.90;1.80;;;;;;;;;;5036362;28;20514;-75
2022/02/23 05:40:05;;;;;;;4.33;1.90;;;;;;;;;;5036758;28;20422;-75
2022/02/23 05:42:31;;;;;;;2.40;1.70;;;;;;;;;;5036796;28;20776;-75
2022/02/23 05:44:57;;;;;;;3.00;1.80;;;;;;;;;;5036696;28;20399;-75
2022/02/23 05:47:23;;;;;;;4.63;1.73;;;;;;;;;;5036275;28;20402;-75
2022/02/23 05:49:49;;;;;;;3.53;1.97;;;;;;;;;;5036249;28;20801;-75
2022/02/23 05:52:16;;;;;;;9.50;3.00;;;;;;;;;;5036123;28;20405;-75
2022/02/23 05:54:43;;;;;;;5.40;1.60;;;;;;;;;;5036136;28;20425;-76
2022/02/23 05:57:09;;;;;;;4.13;1.60;;;;;;;;;;5036178;28;20433;-76
2022/02/23 05:59:35;;;;;;;4.63;1.70;;;;;;;;;;5036034;28;20406;-74
2022/02/23 06:02:01;;;;;;;2.50;1.33;;;;;;;;;;5035998;28;20397;-75
2022/02/23 06:04:27;;;;;;;8.30;2.33;;;;;;;;;;5035786;28;20414;-74
2022/02/23 06:06:53;;;;;;;6.77;1.73;;;;;;;;;;5035363;28;20391;-75
2022/02/23 06:09:19;;;;;;;3.93;1.80;;;;;;;;;;5035948;28;20481;-75
2022/02/23 06:11:45;;;;;;;5.77;1.87;;;;;;;;;;5035692;28;20445;-75
2022/02/23 06:14:11;;;;;;;3.57;1.90;;;;;;;;;;5036292;28;20403;-75
2022/02/23 06:16:37;;;;;;;4.07;1.87;;;;;;;;;;5035782;28;20451;-75
2022/02/23 06:19:03;;;;;;;5.60;2.17;;;;;;;;;;5035707;28;20403;-74
2022/02/23 06:21:30;;;;;;;4.33;2.10;;;;;;;;;;5035605;28;20470;-75
2022/02/23 06:23:56;;;;;;;4.07;1.97;;;;;;;;;;5036144;28;20415;-75
2022/02/23 06:26:23;;;;;;;8.00;2.60;;;;;;;;;;5035886;28;20430;-75
2022/02/23 06:28:49;;;;;;;3.43;1.63;;;;;;;;;;5052803;28;20798;-75
2022/02/23 06:31:15;;;;;;;3.53;1.60;;;;;;;;;;5061024;28;20489;-75
2022/02/23 06:33:43;;;;;;;8.53;2.47;;;;;;;;;;5056181;28;20179;-76
2022/02/23 06:36:09;;;;;;;3.77;2.43;;;;;;;;;;5055658;28;20439;-75
2022/02/23 06:38:40;;;;;;;6.80;2.53;;;;;;;;;;5055770;28;20405;-75
2022/02/23 06:41:12;;;;;;;3.67;1.93;;;;;;;;;;5054842;28;20504;-75
2022/02/23 06:43:38;;;;;;;6.43;2.07;;;;;;;;;;5048989;28;20441;-76
2022/02/23 06:46:04;;;;;;;4.93;2.13;;;;;;;;;;5055114;28;20437;-76
2022/02/23 06:48:32;;;;;;;7.77;2.80;;;;;;;;;;5067040;28;20754;-76
2022/02/23 06:50:58;;;;;;;6.50;2.47;;;;;;;;;;5034843;28;20458;-76
2022/02/23 06:53:24;;;;;;;3.40;1.90;;;;;;;;;;5035100;28;20411;-76
2022/02/23 06:55:52;;;;;;;8.90;2.53;;;;;;;;;;5050788;28;20421;-77
2022/02/23 06:58:18;;;;;;;5.87;2.23;;;;;;;;;;5054979;28;20401;-76
2022/02/23 07:00:44;;;;;;;6.33;2.30;;;;;;;;;;5054752;28;20500;-76
2022/02/23 07:03:11;;;;;;;3.40;1.80;;;;;;;;;;5055501;28;20422;-76
2022/02/23 07:05:37;;;;;;;6.80;1.73;;;;;;;;;;5054891;28;20412;-76
2022/02/23 07:08:05;;;;;;;8.70;2.90;;;;;;;;;;5052907;28;20898;-75
2022/02/23 07:10:31;;;;;;;6.80;2.93;;;;;;;;;;5053448;28;20445;-76
2022/02/23 07:12:58;;;;;;;7.93;2.70;;;;;;;;;;5055122;28;20402;-76
2022/02/23 07:15:25;;;;;;;5.37;2.07;;;;;;;;;;5054665;28;20480;-75
2022/02/23 07:17:52;;;;;;;7.90;2.23;;;;;;;;;;5053606;28;20462;-76
2022/02/23 07:20:18;;;;;;;4.63;1.80;;;;;;;;;;5052138;28;20416;-76
2022/02/23 07:22:44;;;;;;;15.60;2.70;;;;;;;;;;5053222;28;20182;-76
2022/02/23 07:25:11;;;;;;;6.90;2.53;;;;;;;;;;5054862;28;20413;-76
2022/02/23 07:27:38;;;;;;;6.43;1.93;;;;;;;;;;5054990;28;20402;-76
2022/02/23 07:30:05;;;;;;;5.70;1.73;;;;;;;;;;5054624;28;20453;-76
2022/02/23 07:32:32;;;;;;;6.60;2.47;;;;;;;;;;5054382;28;20422;-77
2022/02/23 07:34:59;;;;;;;3.70;1.60;;;;;;;;;;5054554;28;20548;-76
2022/02/23 07:37:25;;;;;;;5.83;1.80;;;;;;;;;;5049153;28;20485;-76
2022/02/23 07:39:57;;;;;;;8.05;2.50;;;;;;;;;;5052693;28;20412;-76
2022/02/23 07:42:23;;;;;;;5.57;2.00;;;;;;;;;;5053762;28;20171;-76
2022/02/23 07:44:49;;;;;;;4.63;2.03;;;;;;;;;;5054171;28;20422;-76
2022/02/23 07:47:15;;;;;;;3.10;1.40;;;;;;;;;;5053828;28;20413;-76
2022/02/23 07:49:44;;;;;;;6.87;1.93;;;;;;;;;;5053787;28;20425;-76
2022/02/23 07:52:10;;;;;;;2.70;1.60;;;;;;;;;;5053582;28;20443;-76
2022/02/23 07:54:36;;;;;;;2.60;1.50;;;;;;;;;;5054850;28;20453;-76
2022/02/23 07:57:02;;;;;;;6.83;2.27;;;;;;;;;;5053814;28;20402;-76
2022/02/23 07:59:28;;;;;;;5.33;2.00;;;;;;;;;;5053123;28;20770;-76
2022/02/23 08:01:54;;;;;;;3.80;1.87;;;;;;;;;;5045757;28;20433;-76
2022/02/23 08:04:20;;;;;;;8.07;2.53;;;;;;;;;;5042219;28;20427;-76
2022/02/23 08:06:46;;;;;;;4.13;2.03;;;;;;;;;;5044712;28;20449;-76
2022/02/23 08:09:13;;;;;;;2.93;2.10;;;;;;;;;;5049878;28;20428;-76
2022/02/23 08:11:40;;;;;;;9.73;2.53;;;;;;;;;;5048608;28;20465;-76
2022/02/23 08:14:07;;;;;;;7.10;1.93;;;;;;;;;;5043359;28;20422;-76
2022/02/23 08:19:35;;;;;;;5.83;2.10;;;;;;;;;;5040239;28;20420;-76
2022/02/23 08:22:12;;;;;;;5.03;1.73;;;;;;;;;;5040514;28;20452;-77
2022/02/23 08:24:40;;;;;;;3.80;1.90;;;;;;;;;;5043526;28;20487;-77
2022/02/23 08:27:07;;;;;;;6.70;2.30;;;;;;;;;;5042186;28;20914;-76
2022/02/23 08:29:34;;;;;;;6.27;2.23;;;;;;;;;;5041709;28;20934;-76
2022/02/23 08:32:01;;;;;;;6.63;2.70;;;;;;;;;;5045031;28;20464;-76
2022/02/23 08:34:27;;;;;;;3.33;1.53;;;;;;;;;;5048732;28;20914;-77
2022/02/23 08:36:54;;;;;;;6.80;2.40;;;;;;;;;;5048705;28;20410;-76
2022/02/23 08:39:20;;;;;;;5.68;1.60;;;;;;;;;;5044238;28;20412;-75
2022/02/23 08:41:47;;;;;;;5.93;2.00;;;;;;;;;;5051614;28;20215;-76
2022/02/23 08:44:13;;;;;;;4.30;1.90;;;;;;;;;;5049183;28;20444;-76
2022/02/23 08:46:41;;;;;;;5.23;1.60;;;;;;;;;;5049944;28;20960;-76
2022/02/23 08:49:07;;;;;;;4.27;1.80;;;;;;;;;;5050812;28;20430;-75
2022/02/23 08:51:34;;;;;;;5.63;2.03;;;;;;;;;;5044926;28;20471;-77
2022/02/23 08:54:01;;;;;;;3.33;1.70;;;;;;;;;;5047938;28;20193;-76
2022/02/23 08:56:27;;;;;;;9.93;2.40;;;;;;;;;;5045889;28;20405;-76
2022/02/23 08:58:53;;;;;;;7.53;2.45;;;;;;;;;;5040706;28;20531;-76
2022/02/23 09:01:19;;;;;;;6.40;1.47;;;;;;;;;;5043312;28;20198;-76
2022/02/23 09:03:45;;;;;;;4.07;1.90;;;;;;;;;;5047431;28;20421;-76
2022/02/23 09:06:12;;;;;;;5.50;2.30;;;;;;;;;;5045025;28;20413;-75
2022/02/23 09:08:38;;;;;;;3.83;2.10;;;;;;;;;;5046699;28;20476;-76
2022/02/23 09:11:04;;;;;;;5.60;1.40;;;;;;;;;;5042403;28;20476;-75
2022/02/23 09:13:30;;;;;;;5.83;1.77;;;;;;;;;;5042907;28;20414;-76
2022/02/23 09:15:56;;;;;;;4.83;1.70;;;;;;;;;;5036594;28;20420;-76
2022/02/23 09:18:22;;;;;;;7.37;1.57;;;;;;;;;;5040238;28;20418;-76
2022/02/23 09:20:48;;;;;;;6.00;1.73;;;;;;;;;;5046962;28;20463;-75
2022/02/23 09:23:19;;;;;;;6.83;1.73;;;;;;;;;;5046278;28;20475;-77
2022/02/23 09:25:45;;;;;;;3.47;1.53;;;;;;;;;;5046273;28;20409;-76
2022/02/23 09:28:11;;;;;;;4.03;1.83;;;;;;;;;;5051241;28;20409;-76
2022/02/23 09:30:37;;;;;;;4.20;1.80;;;;;;;;;;5049934;28;20457;-75
2022/02/23 09:33:04;;;;;;;3.37;1.87;;;;;;;;;;5053887;28;20448;-76
2022/02/23 09:35:30;;;;;;;3.10;1.40;;;;;;;;;;5042617;28;20402;-76
2022/02/23 09:37:57;;;;;;;4.50;1.93;;;;;;;;;;5042392;28;20937;-76
2022/02/23 09:40:24;;;;;;;9.13;2.30;;;;;;;;;;5045759;28;20468;-76
2022/02/23 09:42:51;;;;;;;5.20;1.90;;;;;;;;;;5049632;28;20417;-76
2022/02/23 09:45:17;;;;;;;9.90;2.20;;;;;;;;;;5049062;28;20505;-77
2022/02/23 09:47:44;;;;;;;4.07;1.90;;;;;;;;;;5052158;28;20428;-76
2022/02/23 09:50:12;;;;;;;3.87;1.90;;;;;;;;;;5053056;28;20456;-76
2022/02/23 09:52:38;;;;;;;6.47;2.20;;;;;;;;;;5052982;28;20413;-76
2022/02/23 09:55:05;;;;;;;6.43;2.53;;;;;;;;;;5051375;28;20406;-76
2022/02/23 09:57:31;;;;;;;7.10;1.83;;;;;;;;;;5043480;28;20438;-77
2022/02/23 09:59:58;;;;;;;6.77;1.87;;;;;;;;;;5051101;28;20813;-76
2022/02/23 10:02:25;;;;;;;8.00;2.30;;;;;;;;;;5050240;28;20417;-77
2022/02/23 10:04:51;;;;;;;9.40;2.87;;;;;;;;;;5050919;28;20944;-75
2022/02/23 10:07:30;;;;;;;6.23;2.00;;;;;;;;;;5049816;28;20425;-75
2022/02/23 10:09:59;;;;;;;7.33;2.53;;;;;;;;;;5044803;28;20472;-75
2022/02/23 10:12:27;;;;;;;4.90;2.07;;;;;;;;;;5044990;28;20433;-75
2022/02/23 10:15:11;;;;;;;4.97;2.30;;;;;;;;;;5051550;28;20432;-75
2022/02/23 10:17:37;;;;;;;5.23;2.30;;;;;;;;;;5037996;28;20800;-77
2022/02/23 10:20:04;;;;;;;8.00;1.53;;;;;;;;;;5042702;28;20455;-77
2022/02/23 10:22:32;;;;;;;9.57;2.47;;;;;;;;;;5052227;28;20475;-76
2022/02/23 10:24:59;;;;;;;8.00;2.33;;;;;;;;;;5047873;28;20418;-78
2022/02/23 10:27:25;;;;;;;7.40;2.67;;;;;;;;;;5043519;28;20423;-78
2022/02/23 10:29:56;;;;;;;5.20;1.87;;;;;;;;;;5050304;28;20438;-77
2022/02/23 10:32:22;;;;;;;8.10;2.20;;;;;;;;;;5055733;28;20413;-80
2022/02/23 10:34:50;;;;;;;6.20;1.87;;;;;;;;;;5054194;28;20764;-76
2022/02/23 10:37:18;;;;;;;9.70;2.67;;;;;;;;;;5049933;28;20917;-76
2022/02/23 10:39:46;;;;;;;9.23;1.93;;;;;;;;;;5047336;28;20497;-76
2022/02/23 10:42:14;;;;;;;5.63;2.17;;;;;;;;;;5050737;28;20429;-76
2022/02/23 10:44:45;;;;;;;3.40;1.60;;;;;;;;;;5054391;28;20513;-75
2022/02/23 10:47:32;;;;;;;7.00;2.30;;;;;;;;;;5053750;28;20414;-75
2022/02/23 10:50:12;;;;;;;7.00;2.03;;;;;;;;;;5048758;28;20466;-76
2022/02/23 10:52:39;;;;;;;5.90;2.10;;;;;;;;;;5045356;28;20429;-76
2022/02/23 10:55:20;;;;;;;13.03;3.33;;;;;;;;;;5039670;28;20905;-75
2022/02/23 10:58:00;;;;;;;6.00;1.97;;;;;;;;;;5038584;28;20491;-75
2022/02/23 11:00:28;;;;;;;4.57;1.83;;;;;;;;;;5053322;28;20512;-76
2022/02/23 11:02:55;;;;;;;6.80;1.80;;;;;;;;;;5046809;28;20430;-77
2022/02/23 11:05:23;;;;;;;3.47;2.07;;;;;;;;;;5054260;28;20421;-76
2022/02/23 11:07:50;;;;;;;2.50;1.67;;;;;;;;;;5051994;28;20417;-76
2022/02/23 11:10:16;;;;;;;8.60;2.23;;;;;;;;;;5051092;28;20460;-76
2022/02/23 11:12:44;;;;;;;5.97;1.70;;;;;;;;;;5029695;28;20494;-76
2022/02/23 11:15:10;;;;;;;5.37;2.33;;;;;;;;;;5050620;28;20500;-77
2022/02/23 11:17:38;;;;;;;8.70;3.60;;;;;;;;;;5035742;28;20468;-78
2022/02/23 11:20:04;;;;;;;4.37;1.83;;;;;;;;;;5052750;28;20461;-77
2022/02/23 11:22:31;;;;;;;10.77;4.30;;;;;;;;;;5053385;28;20431;-76
2022/02/23 11:24:57;;;;;;;9.37;2.30;;;;;;;;;;5044260;28;20741;-76
2022/02/23 11:27:25;;;;;;;5.47;2.07;;;;;;;;;;5049945;28;20796;-74
2022/02/23 11:30:04;;;;;;;4.80;2.23;;;;;;;;;;5050444;28;20427;-77
2022/02/23 11:32:32;;;;;;;4.50;2.37;;;;;;;;;;5049187;28;20383;-76
2022/02/23 11:34:58;;;;;;;7.00;2.20;;;;;;;;;;5032618;28;20411;-77
2022/02/23 11:37:24;;;;;;;3.77;1.90;;;;;;;;;;5038958;28;20445;-75
2022/02/23 11:39:51;;;;;;;4.33;1.90;;;;;;;;;;5052508;28;20429;-76
2022/02/23 11:42:22;;;;;;;10.97;4.60;;;;;;;;;;5047251;28;20916;-76
2022/02/23 11:44:52;;;;;;;6.63;2.03;;;;;;;;;;5045656;28;20415;-76
2022/02/23 11:47:21;;;;;;;8.90;2.20;;;;;;;;;;5038668;28;20402;-76
2022/02/23 11:49:53;;;;;;;4.30;1.70;;;;;;;;;;5050345;28;20434;-76
2022/02/23 11:52:20;;;;;;;2.80;1.47;;;;;;;;;;5052274;28;20409;-77
2022/02/23 11:54:50;;;;;;;8.63;2.10;;;;;;;;;;5032915;28;20413;-76
2022/02/23 11:57:34;;;;;;;2.90;1.63;;;;;;;;;;5051222;28;20816;-75
2022/02/23 12:00:00;;;;;;;3.50;1.60;;;;;;;;;;5051884;28;20417;-76
2022/02/23 12:02:30;;;;;;;2.50;1.90;;;;;;;;;;5051559;28;20444;-76
2022/02/23 12:04:59;;;;;;;4.80;2.00;;;;;;;;;;5034320;28;20412;-74
2022/02/23 12:07:26;;;;;;;4.70;1.57;;;;;;;;;;5050027;28;20515;-75
2022/02/23 12:09:52;;;;;;;5.37;2.33;;;;;;;;;;5045787;28;20441;-76
2022/02/23 12:12:33;;;;;;;5.77;1.73;;;;;;;;;;5048827;28;20417;-75
2022/02/23 12:15:04;;;;;;;7.47;1.93;;;;;;;;;;5048611;28;20449;-75
2022/02/23 12:17:49;;;;;;;10.00;2.27;;;;;;;;;;5049157;28;20416;-75
2022/02/23 12:20:33;;;;;;;7.00;1.87;;;;;;;;;;5048730;28;20945;-75
2022/02/23 12:23:03;;;;;;;5.57;1.90;;;;;;;;;;5047312;28;20428;-75
2022/02/23 12:25:48;;;;;;;5.13;1.63;;;;;;;;;;5039564;28;20426;-75
2022/02/23 12:28:20;;;;;;;14.73;1.87;;;;;;;;;;5036643;28;20425;-75
2022/02/23 12:30:51;;;;;;;4.00;2.33;;;;;;;;;;5045195;28;20445;-75
2022/02/23 12:33:17;;;;;;;4.33;1.53;;;;;;;;;;5048681;28;20769;-76
2022/02/23 12:35:44;;;;;;;7.40;1.87;;;;;;;;;;5052660;28;20409;-75
2022/02/23 12:38:10;;;;;;;4.33;2.00;;;;;;;;;;5053076;28;20417;-76
2022/02/23 12:40:37;;;;;;;5.50;2.20;;;;;;;;;;5055752;28;20464;-75
2022/02/23 12:43:06;;;;;;;4.83;1.80;;;;;;;;;;5052612;28;20944;-75
2022/02/23 12:45:32;;;;;;;4.63;1.53;;;;;;;;;;5049146;28;20507;-75
2022/02/23 12:48:01;;;;;;;3.40;1.73;;;;;;;;;;5036137;28;20433;-75
2022/02/23 12:50:31;;;;;;;5.23;1.80;;;;;;;;;;5036422;28;20456;-75
2022/02/23 12:52:58;;;;;;;3.30;1.43;;;;;;;;;;5052588;28;20436;-75
2022/02/23 12:55:24;;;;;;;8.30;1.83;;;;;;;;;;5051829;28;20414;-75
2022/02/23 12:57:52;;;;;;;6.10;1.33;;;;;;;;;;5046754;28;20428;-75
2022/02/23 13:00:29;;;;;;;5.03;1.87;;;;;;;;;;5050673;28;20846;-76
2022/02/23 13:02:56;;;;;;;12.10;1.90;;;;;;;;;;5039392;28;20467;-76
2022/02/23 13:05:25;;;;;;;3.60;1.77;;;;;;;;;;5047722;28;20521;-75
2022/02/23 13:07:52;;;;;;;4.37;1.90;;;;;;;;;;5049361;28;20413;-75
2022/02/23 13:10:18;;;;;;;5.23;1.80;;;;;;;;;;5048421;28;20450;-76
2022/02/23 13:12:45;;;;;;;3.77;1.43;;;;;;;;;;5044179;28;20515;-74
2022/02/23 13:15:11;;;;;;;6.00;1.90;;;;;;;;;;5048919;28;20421;-76
2022/02/23 13:17:38;;;;;;;3.40;1.80;;;;;;;;;;5040496;28;20474;-76
2022/02/23 13:20:04;;;;;;;7.30;2.03;;;;;;;;;;5048142;28;20449;-76
2022/02/23 13:22:30;;;;;;;5.50;1.67;;;;;;;;;;5044995;28;20456;-76
2022/02/23 13:24:57;;;;;;;4.03;1.47;;;;;;;;;;5048159;28;20418;-76
2022/02/23 13:27:27;;;;;;;3.87;1.30;;;;;;;;;;5047821;28;20765;-75
2022/02/23 13:29:55;;;;;;;2.90;1.37;;;;;;;;;;5044558;28;20456;-76
2022/02/23 13:32:30;;;;;;;4.80;1.73;;;;;;;;;;5050787;28;20781;-76
2022/02/23 13:34:56;;;;;;;10.00;1.83;;;;;;;;;;5049166;28;20428;-76
2022/02/23 13:37:23;;;;;;;6.20;1.43;;;;;;;;;;5049710;28;20426;-75
2022/02/23 13:40:01;;;;;;;5.67;1.40;;;;;;;;;;5046096;28;20441;-75
2022/02/23 13:42:36;;;;;;;4.03;1.70;;;;;;;;;;5044139;28;20456;-76
2022/02/23 13:45:21;;;;;;;4.00;1.60;;;;;;;;;;5019370;22;20631;-80
2022/02/23 13:47:49;;;;;;;9.73;1.60;;;;;;;;;;5000480;28;20435;-80
2022/02/23 13:50:17;;;;;;;3.00;1.43;;;;;;;;;;4996733;28;20496;-80
2022/02/23 13:52:47;;;;;;;2.90;1.33;;;;;;;;;;4997911;28;20447;-79
2022/02/23 13:55:21;;;;;;;2.67;1.43;;;;;;;;;;4990219;28;20449;-80
2022/02/23 13:57:47;;;;;;;1.80;1.10;;;;;;;;;;4978857;28;20429;-79
2022/02/23 14:00:24;;;;;;;6.30;1.67;;;;;;;;;;4972292;28;20416;-83
2022/02/23 14:03:09;;;;;;;7.70;1.77;;;;;;;;;;4972248;28;20452;-78
2022/02/23 14:05:36;;;;;;;4.50;1.70;;;;;;;;;;4976776;28;20456;-79
2022/02/23 14:08:06;;;;;;;4.53;1.63;;;;;;;;;;4977226;28;20429;-79
2022/02/23 14:10:34;;;;;;;3.10;1.37;;;;;;;;;;4973196;28;20577;-79
2022/02/23 14:13:03;;;;;;;6.30;1.90;;;;;;;;;;4965881;28;20422;-78
2022/02/23 14:15:30;;;;;;;2.40;1.10;;;;;;;;;;4975279;28;20429;-78
2022/02/23 14:17:57;;;;;;;4.43;1.50;;;;;;;;;;4994027;28;20420;-77
2022/02/23 14:20:23;;;;;;;4.13;1.50;;;;;;;;;;4980124;28;20548;-78
2022/02/23 14:22:57;;;;;;;3.53;1.53;;;;;;;;;;4975316;28;20584;-78
2022/02/23 14:25:23;;;;;;;3.20;1.40;;;;;;;;;;4975018;28;20449;-78
2022/02/23 14:27:50;;;;;;;2.27;1.23;;;;;;;;;;4979142;28;20422;-78
2022/02/23 14:30:20;;;;;;;5.47;2.20;;;;;;;;;;4977265;28;20818;-78
2022/02/23 14:32:47;;;;;;;2.27;1.20;;;;;;;;;;4971044;28;20422;-76
2022/02/23 14:35:15;;;;;;;4.67;2.27;;;;;;;;;;4977299;28;20439;-77
2022/02/23 14:37:46;;;;;;;5.77;1.40;;;;;;;;;;4977395;28;20425;-78
2022/02/23 14:40:14;;;;;;;5.27;1.70;;;;;;;;;;4987604;28;20405;-77
2022/02/23 14:42:41;;;;;;;6.43;1.80;;;;;;;;;;4971912;28;20495;-77
2022/02/23 14:45:07;;;;;;;5.13;2.30;;;;;;;;;;4971611;28;20468;-78
2022/02/23 14:47:33;;;;;;;3.30;1.40;;;;;;;;;;4973078;28;20948;-77